Terminal Aerodrome Forecast
Issued by NWS

Home | Current Version | Previous Version | Text Only | Print | Product List | Glossary On
Versions: 1 2 3 4 5 6 7 8 9 10 11 12 13 14 15 16 17 18 19 20 21
280
FTAK31 PAJN 212328
TAFASI
TAF
PASI 212328Z 2200/2224 33007KT P6SM SCT040 SCT070
     FM220800 VRB04KT P6SM SCT070 BKN100
     FM221500 02005KT 4SM -SN BR OVC040
     FM221800 06003KT 4SM -SNRA BR OVC025=

USA.gov is the U.S. government's official web portal to all federal, state and local government web resources and services.